sensor_id;sensor_type;location;lat;lon;timestamp;temperature;humidity
74809;DHT22;63338;39.544;2.596;2022-10-18T00:00:50;24.00;86.50
74809;DHT22;63338;39.544;2.596;2022-10-18T00:03:16;23.90;86.40
74809;DHT22;63338;39.544;2.596;2022-10-18T00:05:42;23.90;86.50
74809;DHT22;63338;39.544;2.596;2022-10-18T00:08:08;23.90;86.30
74809;DHT22;63338;39.544;2.596;2022-10-18T00:10:34;23.90;86.40
74809;DHT22;63338;39.544;2.596;2022-10-18T00:13:00;23.90;86.30
74809;DHT22;63338;39.544;2.596;2022-10-18T00:15:29;24.00;86.20
74809;DHT22;63338;39.544;2.596;2022-10-18T00:17:55;24.00;86.10
74809;DHT22;63338;39.544;2.596;2022-10-18T00:20:21;23.90;86.20
74809;DHT22;63338;39.544;2.596;2022-10-18T00:22:47;23.90;86.20
74809;DHT22;63338;39.544;2.596;2022-10-18T00:25:14;24.00;86.30
74809;DHT22;63338;39.544;2.596;2022-10-18T00:27:41;24.00;85.90
74809;DHT22;63338;39.544;2.596;2022-10-18T00:30:08;24.00;86.00
74809;DHT22;63338;39.544;2.596;2022-10-18T00:32:39;24.00;85.90
74809;DHT22;63338;39.544;2.596;2022-10-18T00:35:06;24.00;85.90
74809;DHT22;63338;39.544;2.596;2022-10-18T00:37:33;23.90;85.90
74809;DHT22;63338;39.544;2.596;2022-10-18T00:40:00;23.80;86.10
74809;DHT22;63338;39.544;2.596;2022-10-18T00:42:29;23.80;86.30
74809;DHT22;63338;39.544;2.596;2022-10-18T00:45:08;23.80;86.30
74809;DHT22;63338;39.544;2.596;2022-10-18T00:47:37;23.60;86.20
74809;DHT22;63338;39.544;2.596;2022-10-18T00:50:04;23.60;86.90
74809;DHT22;63338;39.544;2.596;2022-10-18T00:52:37;23.60;86.80
74809;DHT22;63338;39.544;2.596;2022-10-18T00:55:04;23.50;87.00
74809;DHT22;63338;39.544;2.596;2022-10-18T00:57:31;23.50;86.90
74809;DHT22;63338;39.544;2.596;2022-10-18T00:59:57;23.50;87.00
74809;DHT22;63338;39.544;2.596;2022-10-18T01:02:27;23.50;86.90
74809;DHT22;63338;39.544;2.596;2022-10-18T01:04:53;23.50;87.00
74809;DHT22;63338;39.544;2.596;2022-10-18T01:21:08;23.30;87.30
74809;DHT22;63338;39.544;2.596;2022-10-18T01:29:54;23.30;87.50
74809;DHT22;63338;39.544;2.596;2022-10-18T01:32:45;23.30;87.30
74809;DHT22;63338;39.544;2.596;2022-10-18T01:35:17;23.30;87.40
74809;DHT22;63338;39.544;2.596;2022-10-18T01:37:47;23.40;87.30
74809;DHT22;63338;39.544;2.596;2022-10-18T01:40:17;23.40;87.20
74809;DHT22;63338;39.544;2.596;2022-10-18T01:42:45;23.40;87.30
74809;DHT22;63338;39.544;2.596;2022-10-18T01:45:13;23.40;87.20
74809;DHT22;63338;39.544;2.596;2022-10-18T01:47:44;23.40;87.10
74809;DHT22;63338;39.544;2.596;2022-10-18T01:50:12;23.30;87.30
74809;DHT22;63338;39.544;2.596;2022-10-18T01:52:49;23.30;87.20
74809;DHT22;63338;39.544;2.596;2022-10-18T01:55:16;23.30;87.10
74809;DHT22;63338;39.544;2.596;2022-10-18T02:00:22;23.30;87.20
74809;DHT22;63338;39.544;2.596;2022-10-18T02:03:11;23.30;87.30
74809;DHT22;63338;39.544;2.596;2022-10-18T02:11:16;23.10;87.50
74809;DHT22;63338;39.544;2.596;2022-10-18T02:14:18;23.20;87.40
74809;DHT22;63338;39.544;2.596;2022-10-18T02:16:55;23.20;87.60
74809;DHT22;63338;39.544;2.596;2022-10-18T02:21:56;23.10;87.60
74809;DHT22;63338;39.544;2.596;2022-10-18T02:24:35;23.10;87.60
74809;DHT22;63338;39.544;2.596;2022-10-18T02:27:05;23.10;87.60
74809;DHT22;63338;39.544;2.596;2022-10-18T02:29:32;23.10;87.60
74809;DHT22;63338;39.544;2.596;2022-10-18T02:34:41;23.10;87.70
74809;DHT22;63338;39.544;2.596;2022-10-18T02:37:09;23.10;87.50
74809;DHT22;63338;39.544;2.596;2022-10-18T02:39:38;23.00;87.80
74809;DHT22;63338;39.544;2.596;2022-10-18T02:42:05;23.00;87.60
74809;DHT22;63338;39.544;2.596;2022-10-18T02:44:32;23.00;87.70
74809;DHT22;63338;39.544;2.596;2022-10-18T02:46:59;22.90;87.70
74809;DHT22;63338;39.544;2.596;2022-10-18T02:49:25;23.00;87.80
74809;DHT22;63338;39.544;2.596;2022-10-18T02:51:51;23.00;87.70
74809;DHT22;63338;39.544;2.596;2022-10-18T02:54:17;23.00;87.70
74809;DHT22;63338;39.544;2.596;2022-10-18T02:56:43;23.00;87.60
74809;DHT22;63338;39.544;2.596;2022-10-18T02:59:10;22.90;87.50
74809;DHT22;63338;39.544;2.596;2022-10-18T03:01:36;23.00;87.50
74809;DHT22;63338;39.544;2.596;2022-10-18T03:04:03;22.90;87.90
74809;DHT22;63338;39.544;2.596;2022-10-18T03:06:30;22.90;87.70
74809;DHT22;63338;39.544;2.596;2022-10-18T03:08:56;22.90;88.00
74809;DHT22;63338;39.544;2.596;2022-10-18T03:11:22;22.90;88.00
74809;DHT22;63338;39.544;2.596;2022-10-18T03:13:48;22.80;88.30
74809;DHT22;63338;39.544;2.596;2022-10-18T03:16:18;22.70;88.30
74809;DHT22;63338;39.544;2.596;2022-10-18T03:18:44;22.70;88.50
74809;DHT22;63338;39.544;2.596;2022-10-18T03:21:10;22.70;88.50
74809;DHT22;63338;39.544;2.596;2022-10-18T03:23:36;22.70;88.70
74809;DHT22;63338;39.544;2.596;2022-10-18T03:26:03;22.80;88.80
74809;DHT22;63338;39.544;2.596;2022-10-18T03:28:29;22.80;88.80
74809;DHT22;63338;39.544;2.596;2022-10-18T03:31:02;22.70;88.70
74809;DHT22;63338;39.544;2.596;2022-10-18T03:33:30;22.70;88.70
74809;DHT22;63338;39.544;2.596;2022-10-18T03:35:56;22.80;88.80
74809;DHT22;63338;39.544;2.596;2022-10-18T03:38:22;22.70;89.00
74809;DHT22;63338;39.544;2.596;2022-10-18T03:40:48;22.70;89.00
74809;DHT22;63338;39.544;2.596;2022-10-18T03:43:14;22.80;88.80
74809;DHT22;63338;39.544;2.596;2022-10-18T03:45:43;22.70;89.10
74809;DHT22;63338;39.544;2.596;2022-10-18T03:48:09;22.80;88.80
74809;DHT22;63338;39.544;2.596;2022-10-18T03:50:35;22.90;88.60
74809;DHT22;63338;39.544;2.596;2022-10-18T03:53:01;22.80;88.70
74809;DHT22;63338;39.544;2.596;2022-10-18T03:55:27;22.80;88.80
74809;DHT22;63338;39.544;2.596;2022-10-18T03:57:54;22.70;88.70
74809;DHT22;63338;39.544;2.596;2022-10-18T04:00:20;22.80;88.70
74809;DHT22;63338;39.544;2.596;2022-10-18T04:02:48;22.70;88.50
74809;DHT22;63338;39.544;2.596;2022-10-18T04:05:14;22.70;88.80
74809;DHT22;63338;39.544;2.596;2022-10-18T04:07:40;22.70;89.10
74809;DHT22;63338;39.544;2.596;2022-10-18T04:10:07;22.70;88.90
74809;DHT22;63338;39.544;2.596;2022-10-18T04:12:33;22.60;88.90
74809;DHT22;63338;39.544;2.596;2022-10-18T04:14:59;22.60;89.00
74809;DHT22;63338;39.544;2.596;2022-10-18T04:17:25;22.70;88.80
74809;DHT22;63338;39.544;2.596;2022-10-18T04:19:51;22.60;89.10
74809;DHT22;63338;39.544;2.596;2022-10-18T04:22:17;22.60;89.00
74809;DHT22;63338;39.544;2.596;2022-10-18T04:24:43;22.50;89.10
74809;DHT22;63338;39.544;2.596;2022-10-18T04:27:09;22.40;89.00
74809;DHT22;63338;39.544;2.596;2022-10-18T04:29:35;22.50;88.90
74809;DHT22;63338;39.544;2.596;2022-10-18T04:32:01;22.40;89.00
74809;DHT22;63338;39.544;2.596;2022-10-18T04:34:28;22.30;89.10
74809;DHT22;63338;39.544;2.596;2022-10-18T04:36:54;22.30;89.30
74809;DHT22;63338;39.544;2.596;2022-10-18T04:39:23;22.30;89.40
74809;DHT22;63338;39.544;2.596;2022-10-18T04:41:49;22.30;89.60
74809;DHT22;63338;39.544;2.596;2022-10-18T04:44:15;22.30;89.90
74809;DHT22;63338;39.544;2.596;2022-10-18T04:46:41;22.30;90.00
74809;DHT22;63338;39.544;2.596;2022-10-18T04:49:07;22.30;90.00
74809;DHT22;63338;39.544;2.596;2022-10-18T04:51:34;22.30;90.00
74809;DHT22;63338;39.544;2.596;2022-10-18T04:54:05;22.30;89.90
74809;DHT22;63338;39.544;2.596;2022-10-18T04:56:35;22.40;89.90
74809;DHT22;63338;39.544;2.596;2022-10-18T04:59:01;22.40;89.90
74809;DHT22;63338;39.544;2.596;2022-10-18T05:01:27;22.40;89.90
74809;DHT22;63338;39.544;2.596;2022-10-18T05:03:53;22.40;89.70
74809;DHT22;63338;39.544;2.596;2022-10-18T05:06:23;22.50;89.80
74809;DHT22;63338;39.544;2.596;2022-10-18T05:08:49;22.50;89.60
74809;DHT22;63338;39.544;2.596;2022-10-18T05:11:15;22.60;89.50
74809;DHT22;63338;39.544;2.596;2022-10-18T05:13:44;22.60;89.60
74809;DHT22;63338;39.544;2.596;2022-10-18T05:16:10;22.70;89.30
74809;DHT22;63338;39.544;2.596;2022-10-18T05:18:37;22.60;89.20
74809;DHT22;63338;39.544;2.596;2022-10-18T05:21:03;22.60;89.30
74809;DHT22;63338;39.544;2.596;2022-10-18T05:23:29;22.60;89.30
74809;DHT22;63338;39.544;2.596;2022-10-18T05:26:00;22.60;89.20
74809;DHT22;63338;39.544;2.596;2022-10-18T05:28:26;22.70;89.20
74809;DHT22;63338;39.544;2.596;2022-10-18T05:30:52;22.60;89.20
74809;DHT22;63338;39.544;2.596;2022-10-18T05:33:19;22.70;89.10
74809;DHT22;63338;39.544;2.596;2022-10-18T05:35:45;22.60;89.10
74809;DHT22;63338;39.544;2.596;2022-10-18T05:38:11;22.70;89.10
74809;DHT22;63338;39.544;2.596;2022-10-18T05:40:38;22.60;89.10
74809;DHT22;63338;39.544;2.596;2022-10-18T05:43:04;22.60;89.20
74809;DHT22;63338;39.544;2.596;2022-10-18T05:45:30;22.50;89.00
74809;DHT22;63338;39.544;2.596;2022-10-18T05:47:56;22.60;89.10
74809;DHT22;63338;39.544;2.596;2022-10-18T05:50:22;22.60;89.10
74809;DHT22;63338;39.544;2.596;2022-10-18T05:52:48;22.60;89.10
74809;DHT22;63338;39.544;2.596;2022-10-18T05:55:14;22.50;89.10
74809;DHT22;63338;39.544;2.596;2022-10-18T05:57:42;22.50;89.10
74809;DHT22;63338;39.544;2.596;2022-10-18T06:00:09;22.50;89.20
74809;DHT22;63338;39.544;2.596;2022-10-18T06:02:35;22.40;89.20
74809;DHT22;63338;39.544;2.596;2022-10-18T06:05:01;22.40;89.20
74809;DHT22;63338;39.544;2.596;2022-10-18T06:07:27;22.40;89.20
74809;DHT22;63338;39.544;2.596;2022-10-18T06:09:54;22.50;89.10
74809;DHT22;63338;39.544;2.596;2022-10-18T06:12:22;22.50;89.30
74809;DHT22;63338;39.544;2.596;2022-10-18T06:14:48;22.40;89.20
74809;DHT22;63338;39.544;2.596;2022-10-18T06:17:14;22.40;89.10
74809;DHT22;63338;39.544;2.596;2022-10-18T06:19:41;22.40;89.20
74809;DHT22;63338;39.544;2.596;2022-10-18T06:22:10;22.40;89.30
74809;DHT22;63338;39.544;2.596;2022-10-18T06:24:39;22.40;89.30
74809;DHT22;63338;39.544;2.596;2022-10-18T06:27:05;22.40;89.30
74809;DHT22;63338;39.544;2.596;2022-10-18T06:29:39;22.40;89.30
74809;DHT22;63338;39.544;2.596;2022-10-18T06:32:07;22.40;89.40
74809;DHT22;63338;39.544;2.596;2022-10-18T06:34:33;22.50;89.40
74809;DHT22;63338;39.544;2.596;2022-10-18T06:36:59;22.40;89.10
74809;DHT22;63338;39.544;2.596;2022-10-18T06:39:26;22.50;89.30
74809;DHT22;63338;39.544;2.596;2022-10-18T06:41:52;22.50;89.30
74809;DHT22;63338;39.544;2.596;2022-10-18T06:44:21;22.60;89.10
74809;DHT22;63338;39.544;2.596;2022-10-18T06:46:48;22.60;89.20
74809;DHT22;63338;39.544;2.596;2022-10-18T06:49:15;22.70;89.20
74809;DHT22;63338;39.544;2.596;2022-10-18T06:51:42;22.70;89.20
74809;DHT22;63338;39.544;2.596;2022-10-18T06:54:09;22.90;89.10
74809;DHT22;63338;39.544;2.596;2022-10-18T06:56:35;23.00;88.90
74809;DHT22;63338;39.544;2.596;2022-10-18T06:59:01;23.00;88.80
74809;DHT22;63338;39.544;2.596;2022-10-18T07:01:44;23.00;88.50
74809;DHT22;63338;39.544;2.596;2022-10-18T07:04:12;23.10;88.30
74809;DHT22;63338;39.544;2.596;2022-10-18T07:06:44;23.00;88.20
74809;DHT22;63338;39.544;2.596;2022-10-18T07:09:15;23.20;87.80
74809;DHT22;63338;39.544;2.596;2022-10-18T07:11:42;23.30;87.80
74809;DHT22;63338;39.544;2.596;2022-10-18T07:14:44;23.40;87.50
74809;DHT22;63338;39.544;2.596;2022-10-18T07:17:11;23.40;87.10
74809;DHT22;63338;39.544;2.596;2022-10-18T07:19:36;23.50;87.10
74809;DHT22;63338;39.544;2.596;2022-10-18T07:22:05;23.60;87.00
74809;DHT22;63338;39.544;2.596;2022-10-18T07:24:52;23.60;86.80
74809;DHT22;63338;39.544;2.596;2022-10-18T07:27:18;23.70;86.40
74809;DHT22;63338;39.544;2.596;2022-10-18T07:29:44;23.80;86.20
74809;DHT22;63338;39.544;2.596;2022-10-18T07:32:10;24.00;85.90
74809;DHT22;63338;39.544;2.596;2022-10-18T07:34:51;24.10;85.60
74809;DHT22;63338;39.544;2.596;2022-10-18T07:37:30;24.20;85.20
74809;DHT22;63338;39.544;2.596;2022-10-18T07:39:58;24.30;85.20
74809;DHT22;63338;39.544;2.596;2022-10-18T07:42:24;24.50;85.00
74809;DHT22;63338;39.544;2.596;2022-10-18T07:44:53;24.60;84.20
74809;DHT22;63338;39.544;2.596;2022-10-18T07:47:23;24.80;83.40
74809;DHT22;63338;39.544;2.596;2022-10-18T07:49:49;24.90;83.30
74809;DHT22;63338;39.544;2.596;2022-10-18T07:52:17;25.00;83.10
74809;DHT22;63338;39.544;2.596;2022-10-18T07:54:46;25.10;82.90
74809;DHT22;63338;39.544;2.596;2022-10-18T07:57:12;25.30;82.90
74809;DHT22;63338;39.544;2.596;2022-10-18T07:59:38;25.40;82.20
74809;DHT22;63338;39.544;2.596;2022-10-18T08:02:05;25.60;82.10
74809;DHT22;63338;39.544;2.596;2022-10-18T08:04:31;25.80;81.20
74809;DHT22;63338;39.544;2.596;2022-10-18T08:06:57;26.10;81.10
74809;DHT22;63338;39.544;2.596;2022-10-18T08:09:24;26.50;79.50
74809;DHT22;63338;39.544;2.596;2022-10-18T08:11:54;27.10;78.70
74809;DHT22;63338;39.544;2.596;2022-10-18T08:14:23;27.50;77.30
74809;DHT22;63338;39.544;2.596;2022-10-18T08:16:49;27.70;75.90
74809;DHT22;63338;39.544;2.596;2022-10-18T08:19:15;27.80;75.20
74809;DHT22;63338;39.544;2.596;2022-10-18T08:29:06;28.10;74.60
74809;DHT22;63338;39.544;2.596;2022-10-18T08:39:48;28.00;74.50
74809;DHT22;63338;39.544;2.596;2022-10-18T09:15:58;31.40;65.90
74809;DHT22;63338;39.544;2.596;2022-10-18T09:24:37;32.30;63.60
74809;DHT22;63338;39.544;2.596;2022-10-18T09:34:27;33.00;61.20
74809;DHT22;63338;39.544;2.596;2022-10-18T09:41:23;33.30;60.30
74809;DHT22;63338;39.544;2.596;2022-10-18T09:44:16;33.20;60.60
74809;DHT22;63338;39.544;2.596;2022-10-18T09:47:47;33.10;60.00
74809;DHT22;63338;39.544;2.596;2022-10-18T09:54:34;33.40;59.60
74809;DHT22;63338;39.544;2.596;2022-10-18T09:57:45;33.40;58.80
74809;DHT22;63338;39.544;2.596;2022-10-18T10:00:23;33.70;59.60
74809;DHT22;63338;39.544;2.596;2022-10-18T10:02:53;33.70;59.40
74809;DHT22;63338;39.544;2.596;2022-10-18T10:05:26;33.70;59.20
74809;DHT22;63338;39.544;2.596;2022-10-18T10:11:04;33.60;59.10
74809;DHT22;63338;39.544;2.596;2022-10-18T10:13:33;33.60;59.50
74809;DHT22;63338;39.544;2.596;2022-10-18T10:16:00;33.60;58.70
74809;DHT22;63338;39.544;2.596;2022-10-18T10:18:38;33.70;59.00
74809;DHT22;63338;39.544;2.596;2022-10-18T10:21:07;33.80;58.40
74809;DHT22;63338;39.544;2.596;2022-10-18T10:23:52;34.10;58.80
74809;DHT22;63338;39.544;2.596;2022-10-18T10:26:36;34.10;58.80
74809;DHT22;63338;39.544;2.596;2022-10-18T10:32:13;34.10;58.90
74809;DHT22;63338;39.544;2.596;2022-10-18T10:34:40;34.10;58.70
74809;DHT22;63338;39.544;2.596;2022-10-18T10:37:26;34.00;58.90
74809;DHT22;63338;39.544;2.596;2022-10-18T10:40:09;34.10;58.10
74809;DHT22;63338;39.544;2.596;2022-10-18T10:45:28;34.20;58.30
74809;DHT22;63338;39.544;2.596;2022-10-18T10:48:10;34.10;58.50
74809;DHT22;63338;39.544;2.596;2022-10-18T10:51:00;34.40;58.20
74809;DHT22;63338;39.544;2.596;2022-10-18T10:58:48;33.80;57.90
74809;DHT22;63338;39.544;2.596;2022-10-18T11:01:31;33.80;58.40
74809;DHT22;63338;39.544;2.596;2022-10-18T11:04:00;33.90;58.50
74809;DHT22;63338;39.544;2.596;2022-10-18T11:09:05;34.50;57.30
74809;DHT22;63338;39.544;2.596;2022-10-18T11:11:38;34.80;56.40
74809;DHT22;63338;39.544;2.596;2022-10-18T11:14:15;35.20;55.70
74809;DHT22;63338;39.544;2.596;2022-10-18T11:22:11;35.80;54.50
74809;DHT22;63338;39.544;2.596;2022-10-18T11:24:40;36.00;54.10
74809;DHT22;63338;39.544;2.596;2022-10-18T11:27:27;36.00;53.80
74809;DHT22;63338;39.544;2.596;2022-10-18T11:30:35;35.90;53.70
74809;DHT22;63338;39.544;2.596;2022-10-18T11:33:20;36.10;53.20
74809;DHT22;63338;39.544;2.596;2022-10-18T11:36:23;36.10;53.90
74809;DHT22;63338;39.544;2.596;2022-10-18T11:38:56;36.00;53.80
74809;DHT22;63338;39.544;2.596;2022-10-18T11:43:58;35.30;53.60
74809;DHT22;63338;39.544;2.596;2022-10-18T12:00:28;33.70;58.00
74809;DHT22;63338;39.544;2.596;2022-10-18T12:06:02;33.30;59.00
74809;DHT22;63338;39.544;2.596;2022-10-18T12:08:48;32.70;60.30
74809;DHT22;63338;39.544;2.596;2022-10-18T12:11:35;32.50;60.50
74809;DHT22;63338;39.544;2.596;2022-10-18T12:14:16;32.40;61.10
74809;DHT22;63338;39.544;2.596;2022-10-18T12:16:53;32.20;61.60
74809;DHT22;63338;39.544;2.596;2022-10-18T12:19:30;32.00;62.40
74809;DHT22;63338;39.544;2.596;2022-10-18T12:22:09;31.70;63.70
74809;DHT22;63338;39.544;2.596;2022-10-18T12:24:38;31.50;64.30
74809;DHT22;63338;39.544;2.596;2022-10-18T12:27:05;31.20;65.10
74809;DHT22;63338;39.544;2.596;2022-10-18T12:32:18;30.80;67.10
74809;DHT22;63338;39.544;2.596;2022-10-18T12:34:55;30.60;68.00
74809;DHT22;63338;39.544;2.596;2022-10-18T12:40:04;29.80;69.10
74809;DHT22;63338;39.544;2.596;2022-10-18T12:42:43;29.50;69.80
74809;DHT22;63338;39.544;2.596;2022-10-18T12:45:23;29.40;70.30
74809;DHT22;63338;39.544;2.596;2022-10-18T12:51:14;29.10;71.60
74809;DHT22;63338;39.544;2.596;2022-10-18T12:56:44;28.90;72.10
74809;DHT22;63338;39.544;2.596;2022-10-18T13:07:48;28.70;73.10
74809;DHT22;63338;39.544;2.596;2022-10-18T13:15:43;28.40;73.80
74809;DHT22;63338;39.544;2.596;2022-10-18T13:22:23;28.20;74.20
74809;DHT22;63338;39.544;2.596;2022-10-18T13:24:23;28.20;74.20
74809;DHT22;63338;39.544;2.596;2022-10-18T13:35:41;28.10;74.40
74809;DHT22;63338;39.544;2.596;2022-10-18T14:06:26;27.70;75.60
74809;DHT22;63338;39.544;2.596;2022-10-18T14:12:00;27.60;76.40
74809;DHT22;63338;39.544;2.596;2022-10-18T14:17:45;27.50;76.90
74809;DHT22;63338;39.544;2.596;2022-10-18T14:25:49;27.20;77.60
74809;DHT22;63338;39.544;2.596;2022-10-18T14:28:23;27.10;78.00
74809;DHT22;63338;39.544;2.596;2022-10-18T14:33:56;27.10;77.90
74809;DHT22;63338;39.544;2.596;2022-10-18T14:36:27;27.10;78.00
74809;DHT22;63338;39.544;2.596;2022-10-18T14:42:00;27.20;77.90
74809;DHT22;63338;39.544;2.596;2022-10-18T14:44:31;27.20;78.30
74809;DHT22;63338;39.544;2.596;2022-10-18T14:47:20;27.10;78.10
74809;DHT22;63338;39.544;2.596;2022-10-18T14:49:48;27.00;78.10
74809;DHT22;63338;39.544;2.596;2022-10-18T14:52:26;27.00;78.10
74809;DHT22;63338;39.544;2.596;2022-10-18T14:54:56;27.20;78.20
74809;DHT22;63338;39.544;2.596;2022-10-18T14:57:35;27.20;78.00
74809;DHT22;63338;39.544;2.596;2022-10-18T15:00:06;27.10;78.20
74809;DHT22;63338;39.544;2.596;2022-10-18T15:02:37;27.30;78.20
74809;DHT22;63338;39.544;2.596;2022-10-18T15:07:47;27.30;78.20
74809;DHT22;63338;39.544;2.596;2022-10-18T15:12:43;27.20;78.30
74809;DHT22;63338;39.544;2.596;2022-10-18T15:15:20;27.20;78.70
74809;DHT22;63338;39.544;2.596;2022-10-18T15:17:47;27.10;78.50
74809;DHT22;63338;39.544;2.596;2022-10-18T15:20:33;27.10;78.30
74809;DHT22;63338;39.544;2.596;2022-10-18T15:23:37;27.00;78.60
74809;DHT22;63338;39.544;2.596;2022-10-18T15:26:08;27.00;78.80
74809;DHT22;63338;39.544;2.596;2022-10-18T15:28:42;26.90;78.70
74809;DHT22;63338;39.544;2.596;2022-10-18T15:31:27;26.70;78.60
74809;DHT22;63338;39.544;2.596;2022-10-18T15:33:54;26.70;79.00
74809;DHT22;63338;39.544;2.596;2022-10-18T15:36:34;26.70;78.80
74809;DHT22;63338;39.544;2.596;2022-10-18T15:39:20;26.70;79.20
74809;DHT22;63338;39.544;2.596;2022-10-18T15:44:24;26.60;79.30
74809;DHT22;63338;39.544;2.596;2022-10-18T15:47:07;26.60;79.40
74809;DHT22;63338;39.544;2.596;2022-10-18T15:58:10;26.40;80.30
74809;DHT22;63338;39.544;2.596;2022-10-18T16:00:37;26.20;80.90
74809;DHT22;63338;39.544;2.596;2022-10-18T16:03:07;26.30;81.00
74809;DHT22;63338;39.544;2.596;2022-10-18T16:05:37;26.20;81.10
74809;DHT22;63338;39.544;2.596;2022-10-18T16:08:06;26.20;81.50
74809;DHT22;63338;39.544;2.596;2022-10-18T16:10:35;26.20;81.50
74809;DHT22;63338;39.544;2.596;2022-10-18T16:13:06;26.20;81.30
74809;DHT22;63338;39.544;2.596;2022-10-18T16:15:32;26.10;81.20
74809;DHT22;63338;39.544;2.596;2022-10-18T16:17:58;26.10;81.10
74809;DHT22;63338;39.544;2.596;2022-10-18T16:20:24;26.00;81.40
74809;DHT22;63338;39.544;2.596;2022-10-18T16:22:51;26.00;81.60
74809;DHT22;63338;39.544;2.596;2022-10-18T16:25:20;26.00;81.70
74809;DHT22;63338;39.544;2.596;2022-10-18T16:27:46;25.90;82.20
74809;DHT22;63338;39.544;2.596;2022-10-18T16:30:18;25.90;82.40
74809;DHT22;63338;39.544;2.596;2022-10-18T16:32:51;25.70;82.60
74809;DHT22;63338;39.544;2.596;2022-10-18T16:35:36;25.80;82.50
74809;DHT22;63338;39.544;2.596;2022-10-18T16:38:34;25.70;82.60
74809;DHT22;63338;39.544;2.596;2022-10-18T16:41:10;25.60;83.10
74809;DHT22;63338;39.544;2.596;2022-10-18T16:43:39;25.50;83.30
74809;DHT22;63338;39.544;2.596;2022-10-18T16:46:09;25.50;83.40
74809;DHT22;63338;39.544;2.596;2022-10-18T16:48:47;25.50;83.40
74809;DHT22;63338;39.544;2.596;2022-10-18T16:51:16;25.40;83.60
74809;DHT22;63338;39.544;2.596;2022-10-18T16:53:59;25.40;83.70
74809;DHT22;63338;39.544;2.596;2022-10-18T16:56:33;25.40;83.70
74809;DHT22;63338;39.544;2.596;2022-10-18T16:59:27;25.50;83.80
74809;DHT22;63338;39.544;2.596;2022-10-18T17:01:54;25.40;83.70
74809;DHT22;63338;39.544;2.596;2022-10-18T17:04:23;25.50;83.70
74809;DHT22;63338;39.544;2.596;2022-10-18T17:06:52;25.40;83.80
74809;DHT22;63338;39.544;2.596;2022-10-18T17:09:22;25.40;83.70
74809;DHT22;63338;39.544;2.596;2022-10-18T17:11:52;25.40;83.80
74809;DHT22;63338;39.544;2.596;2022-10-18T17:14:20;25.30;83.80
74809;DHT22;63338;39.544;2.596;2022-10-18T17:16:51;25.30;83.90
74809;DHT22;63338;39.544;2.596;2022-10-18T17:19:17;25.30;84.00
74809;DHT22;63338;39.544;2.596;2022-10-18T17:21:43;25.20;84.00
74809;DHT22;63338;39.544;2.596;2022-10-18T17:24:13;25.30;84.10
74809;DHT22;63338;39.544;2.596;2022-10-18T17:29:52;25.20;84.10
74809;DHT22;63338;39.544;2.596;2022-10-18T17:36:13;25.10;84.20
74809;DHT22;63338;39.544;2.596;2022-10-18T17:38:39;25.10;84.30
74809;DHT22;63338;39.544;2.596;2022-10-18T17:44:12;25.00;84.50
74809;DHT22;63338;39.544;2.596;2022-10-18T17:46:43;24.90;84.50
74809;DHT22;63338;39.544;2.596;2022-10-18T17:49:22;24.90;84.80
74809;DHT22;63338;39.544;2.596;2022-10-18T17:51:51;24.80;84.90
74809;DHT22;63338;39.544;2.596;2022-10-18T17:54:23;24.70;85.10
74809;DHT22;63338;39.544;2.596;2022-10-18T17:56:52;24.70;85.40
74809;DHT22;63338;39.544;2.596;2022-10-18T17:59:19;24.60;85.70
74809;DHT22;63338;39.544;2.596;2022-10-18T18:02:55;24.60;85.60
74809;DHT22;63338;39.544;2.596;2022-10-18T18:05:21;24.40;85.50
74809;DHT22;63338;39.544;2.596;2022-10-18T18:07:48;24.50;85.60
74809;DHT22;63338;39.544;2.596;2022-10-18T18:10:14;24.50;85.80
74809;DHT22;63338;39.544;2.596;2022-10-18T18:12:41;24.40;85.80
74809;DHT22;63338;39.544;2.596;2022-10-18T18:15:11;24.40;86.10
74809;DHT22;63338;39.544;2.596;2022-10-18T18:17:37;24.30;86.20
74809;DHT22;63338;39.544;2.596;2022-10-18T18:20:03;24.20;86.10
74809;DHT22;63338;39.544;2.596;2022-10-18T18:22:29;24.20;86.30
74809;DHT22;63338;39.544;2.596;2022-10-18T18:24:55;24.20;86.30
74809;DHT22;63338;39.544;2.596;2022-10-18T18:27:22;24.20;86.30
74809;DHT22;63338;39.544;2.596;2022-10-18T18:29:51;24.10;86.50
74809;DHT22;63338;39.544;2.596;2022-10-18T18:32:17;24.10;86.40
74809;DHT22;63338;39.544;2.596;2022-10-18T18:34:44;24.10;86.50
74809;DHT22;63338;39.544;2.596;2022-10-18T18:37:19;24.10;86.60
74809;DHT22;63338;39.544;2.596;2022-10-18T18:39:51;24.10;86.80
74809;DHT22;63338;39.544;2.596;2022-10-18T18:42:17;24.00;86.70
74809;DHT22;63338;39.544;2.596;2022-10-18T18:44:44;24.10;86.60
74809;DHT22;63338;39.544;2.596;2022-10-18T18:47:11;24.00;86.70
74809;DHT22;63338;39.544;2.596;2022-10-18T18:49:37;24.00;86.70
74809;DHT22;63338;39.544;2.596;2022-10-18T18:52:04;24.10;86.50
74809;DHT22;63338;39.544;2.596;2022-10-18T18:54:30;24.00;86.70
74809;DHT22;63338;39.544;2.596;2022-10-18T18:56:57;24.10;86.70
74809;DHT22;63338;39.544;2.596;2022-10-18T18:59:23;24.10;86.50
74809;DHT22;63338;39.544;2.596;2022-10-18T19:01:49;24.00;86.70
74809;DHT22;63338;39.544;2.596;2022-10-18T19:04:19;24.10;86.90
74809;DHT22;63338;39.544;2.596;2022-10-18T19:06:46;24.10;86.90
74809;DHT22;63338;39.544;2.596;2022-10-18T19:09:15;24.00;86.80
74809;DHT22;63338;39.544;2.596;2022-10-18T19:11:48;24.00;86.90
74809;DHT22;63338;39.544;2.596;2022-10-18T19:14:15;24.00;87.10
74809;DHT22;63338;39.544;2.596;2022-10-18T19:16:49;24.10;87.10
74809;DHT22;63338;39.544;2.596;2022-10-18T19:19:17;24.00;87.00
74809;DHT22;63338;39.544;2.596;2022-10-18T19:21:46;24.00;87.20
74809;DHT22;63338;39.544;2.596;2022-10-18T19:24:14;24.10;87.10
74809;DHT22;63338;39.544;2.596;2022-10-18T19:26:44;24.10;87.10
74809;DHT22;63338;39.544;2.596;2022-10-18T19:31:49;24.20;87.20
74809;DHT22;63338;39.544;2.596;2022-10-18T19:34:16;24.10;87.10
74809;DHT22;63338;39.544;2.596;2022-10-18T19:36:44;24.10;87.00
74809;DHT22;63338;39.544;2.596;2022-10-18T19:39:31;24.20;87.30
74809;DHT22;63338;39.544;2.596;2022-10-18T19:41:59;24.30;87.70
74809;DHT22;63338;39.544;2.596;2022-10-18T19:44:28;24.40;87.70
74809;DHT22;63338;39.544;2.596;2022-10-18T19:50:52;24.40;87.30
74809;DHT22;63338;39.544;2.596;2022-10-18T19:53:18;24.50;87.30
74809;DHT22;63338;39.544;2.596;2022-10-18T19:55:44;24.50;87.00
74809;DHT22;63338;39.544;2.596;2022-10-18T19:58:10;24.60;86.80
74809;DHT22;63338;39.544;2.596;2022-10-18T20:00:36;24.60;86.80
74809;DHT22;63338;39.544;2.596;2022-10-18T20:03:03;24.60;87.10
74809;DHT22;63338;39.544;2.596;2022-10-18T20:05:29;24.60;87.20
74809;DHT22;63338;39.544;2.596;2022-10-18T20:07:55;24.60;86.90
74809;DHT22;63338;39.544;2.596;2022-10-18T20:10:21;24.60;86.90
74809;DHT22;63338;39.544;2.596;2022-10-18T20:12:57;24.50;86.80
74809;DHT22;63338;39.544;2.596;2022-10-18T20:15:24;24.50;86.90